Time;durP1;ratioP1;P1;durP2;ratioP2;P2;SDS_P1;SDS_P2;PMS_P1;PMS_P2;Temp;Humidity;BMP_temperature;BMP_pressure;BME280_temperature;BME280_humidity;BME280_pressure;Samples;Min_cycle;Max_cycle;Signal;HPM_P1;HPM_P2
2022/09/30 00:00:19;;;;;;;22.32;15.48;;;;;;;5.36;100.00;98098.70;2103125;83;21045;-85
2022/09/30 00:03:22;;;;;;;18.20;14.25;;;;;;;5.33;100.00;98093.84;2085913;84;21076;-86
2022/09/30 00:06:23;;;;;;;23.55;14.75;;;;;;;5.38;100.00;98092.86;2084106;84;21524;-85
2022/09/30 00:09:25;;;;;;;24.72;15.10;;;;;;;5.36;100.00;98088.32;2064259;84;20977;-85
2022/09/30 00:12:26;;;;;;;25.72;17.77;;;;;;;5.35;100.00;98086.70;2079532;85;21565;-85
2022/09/30 00:15:27;;;;;;;26.52;15.95;;;;;;;5.45;100.00;98087.84;2095633;83;21115;-85
2022/09/30 00:18:27;;;;;;;27.22;16.60;;;;;;;5.48;100.00;98083.13;2147698;81;21084;-85
2022/09/30 00:21:28;;;;;;;23.70;16.57;;;;;;;5.50;100.00;98082.50;2143394;81;21026;-84
2022/09/30 00:24:29;;;;;;;22.02;15.38;;;;;;;5.40;100.00;98087.85;2085122;84;21709;-86
2022/09/30 00:27:30;;;;;;;26.00;15.53;;;;;;;5.32;100.00;98081.35;2121189;83;21045;-85
2022/09/30 00:30:30;;;;;;;26.85;16.30;;;;;;;5.27;100.00;98094.48;2094525;84;21028;-85
2022/09/30 00:33:31;;;;;;;28.15;15.80;;;;;;;5.23;100.00;98104.38;2150831;81;21059;-85
2022/09/30 00:36:32;;;;;;;21.65;13.75;;;;;;;5.19;100.00;98098.36;2087693;84;21010;-85
2022/09/30 00:39:36;;;;;;;22.45;14.93;;;;;;;5.18;100.00;98098.03;2075921;84;21019;-85
2022/09/30 00:42:35;;;;;;;21.52;14.68;;;;;;;5.16;100.00;98103.39;2096100;83;21173;-85
2022/09/30 00:45:36;;;;;;;17.98;14.10;;;;;;;5.16;100.00;98107.28;2081578;85;21452;-86
2022/09/30 00:48:36;;;;;;;22.40;15.95;;;;;;;5.15;100.00;98109.56;2154382;82;21016;-86
2022/09/30 00:51:37;;;;;;;21.12;15.13;;;;;;;5.16;100.00;98103.39;2086234;83;21044;-83
2022/09/30 00:54:38;;;;;;;20.10;13.80;;;;;;;5.17;100.00;98098.52;2096738;83;21102;-86
2022/09/30 00:57:39;;;;;;;15.50;12.50;;;;;;;5.19;100.00;98097.88;2122661;81;20992;-85
2022/09/30 01:00:40;;;;;;;20.32;14.10;;;;;;;5.21;100.00;98095.11;2138909;82;21048;-85
2022/09/30 01:03:41;;;;;;;21.15;14.18;;;;;;;5.25;100.00;98091.23;2167997;82;21045;-85
2022/09/30 01:06:41;;;;;;;20.52;14.47;;;;;;;5.32;100.00;98089.63;2164362;81;21040;-86
2022/09/30 01:09:43;;;;;;;29.10;18.70;;;;;;;5.39;100.00;98082.80;2144946;81;20985;-85
2022/09/30 01:12:43;;;;;;;24.27;16.52;;;;;;;5.50;100.00;98086.88;2141735;81;21147;-85
2022/09/30 01:15:44;;;;;;;20.50;15.95;;;;;;;5.57;100.00;98088.64;2161589;81;21722;-86
2022/09/30 01:18:45;;;;;;;24.63;15.05;;;;;;;5.68;100.00;98094.83;2151223;82;21024;-85
2022/09/30 01:21:45;;;;;;;23.85;14.15;;;;;;;5.72;100.00;98096.59;2155742;82;21060;-86
2022/09/30 01:24:46;;;;;;;23.85;16.00;;;;;;;5.69;100.00;98100.34;2159519;81;20966;-85
2022/09/30 01:27:47;;;;;;;21.70;13.35;;;;;;;5.77;100.00;98106.52;2156956;82;21053;-85
2022/09/30 01:30:48;;;;;;;20.75;14.70;;;;;;;5.84;100.00;98106.97;2158656;82;21013;-86
2022/09/30 01:33:48;;;;;;;20.45;14.13;;;;;;;5.85;100.00;98115.11;2143108;81;21044;-85
2022/09/30 01:36:49;;;;;;;18.57;14.10;;;;;;;5.93;100.00;98117.71;2161757;82;21084;-85
2022/09/30 01:39:50;;;;;;;18.87;14.70;;;;;;;6.00;100.00;98116.58;2152242;82;20960;-86
2022/09/30 01:42:51;;;;;;;23.47;13.68;;;;;;;6.03;100.00;98113.63;2156713;81;21015;-86
2022/09/30 01:45:51;;;;;;;20.48;13.70;;;;;;;6.05;100.00;98113.00;2149353;81;21008;-85
2022/09/30 01:48:52;;;;;;;18.25;13.68;;;;;;;6.05;100.00;98119.50;2162586;81;21052;-86
2022/09/30 01:51:53;;;;;;;19.67;13.10;;;;;;;6.06;100.00;98125.02;2164311;81;21088;-84
2022/09/30 01:54:53;;;;;;;20.12;13.62;;;;;;;6.04;100.00;98120.48;2074724;85;21037;-86
2022/09/30 01:57:55;;;;;;;20.82;14.20;;;;;;;6.04;100.00;98119.67;2106605;83;20994;-85
2022/09/30 02:00:56;;;;;;;20.55;14.33;;;;;;;6.05;100.00;98110.89;2090599;84;21136;-86
2022/09/30 02:03:56;;;;;;;19.27;13.38;;;;;;;6.04;100.00;98111.88;2074970;84;20999;-85
2022/09/30 02:06:57;;;;;;;20.92;14.95;;;;;;;6.01;100.00;98119.49;2081365;84;21048;-85
2022/09/30 02:09:57;;;;;;;20.27;15.15;;;;;;;5.97;100.00;98120.31;2063143;84;21099;-86
2022/09/30 02:13:02;;;;;;;20.23;14.20;;;;;;;5.97;100.00;98115.12;2069331;85;21507;-85
2022/09/30 02:16:01;;;;;;;22.98;15.23;;;;;;;5.97;100.00;98124.22;2078765;84;21052;-86
2022/09/30 02:19:01;;;;;;;21.07;13.10;;;;;;;5.96;100.00;98125.20;2072869;84;21634;-86
2022/09/30 02:22:02;;;;;;;19.67;13.48;;;;;;;5.91;100.00;98118.37;2106303;84;21094;-86
2022/09/30 02:25:03;;;;;;;21.62;14.98;;;;;;;5.84;100.00;98126.45;2103910;84;21113;-85
2022/09/30 02:28:06;;;;;;;25.75;14.05;;;;;;;5.84;100.00;98125.64;2080743;84;21061;-85
2022/09/30 02:31:06;;;;;;;25.65;15.55;;;;;;;5.82;100.00;98120.62;2087434;84;21110;-85
2022/09/30 02:34:07;;;;;;;21.85;15.25;;;;;;;5.80;100.00;98128.27;2096043;83;21095;-87
2022/09/30 02:37:08;;;;;;;20.05;14.70;;;;;;;5.79;100.00;98133.95;2101541;83;21053;-85
2022/09/30 02:40:09;;;;;;;18.75;13.15;;;;;;;5.83;100.00;98133.12;2099067;83;20973;-85
2022/09/30 02:43:10;;;;;;;20.55;13.72;;;;;;;5.87;100.00;98131.84;2080448;83;21513;-84
2022/09/30 02:46:11;;;;;;;21.93;13.40;;;;;;;5.84;100.00;98137.34;2171237;81;21040;-85
2022/09/30 02:49:12;;;;;;;14.18;12.03;;;;;;;5.80;100.00;98137.35;2167866;81;21092;-84
2022/09/30 02:52:14;;;;;;;17.42;12.45;;;;;;;5.73;100.00;98130.69;2091097;84;21075;-85
2022/09/30 02:55:15;;;;;;;17.85;11.78;;;;;;;5.61;100.00;98135.89;2080746;83;21634;-85
2022/09/30 02:58:16;;;;;;;15.25;11.63;;;;;;;5.52;100.00;98146.77;2082917;84;21013;-85
2022/09/30 03:01:16;;;;;;;15.23;12.13;;;;;;;5.47;100.00;98150.31;2085502;83;21088;-85
2022/09/30 03:04:17;;;;;;;22.52;13.85;;;;;;;5.47;100.00;98133.92;2073225;84;21043;-85
2022/09/30 03:07:18;;;;;;;20.50;13.48;;;;;;;5.46;100.00;98134.90;2108663;83;21018;-85
2022/09/30 03:10:18;;;;;;;25.35;18.07;;;;;;;5.50;100.00;98134.43;2082699;84;21606;-85
2022/09/30 03:13:19;;;;;;;24.12;16.27;;;;;;;5.63;100.00;98142.54;2102417;83;21615;-86
2022/09/30 03:16:20;;;;;;;23.30;15.93;;;;;;;5.66;100.00;98142.20;2107816;83;21520;-84
2022/09/30 03:19:21;;;;;;;24.12;18.65;;;;;;;5.75;100.00;98148.70;2092038;84;21634;-84
2022/09/30 03:22:22;;;;;;;25.72;17.85;;;;;;;5.74;100.00;98150.49;2095360;83;21049;-85
2022/09/30 03:25:23;;;;;;;25.65;18.17;;;;;;;5.82;100.00;98148.39;2097538;83;21039;-85
2022/09/30 03:28:23;;;;;;;29.27;18.60;;;;;;;5.93;100.00;98153.28;2092905;83;21001;-86
2022/09/30 03:31:24;;;;;;;26.12;18.42;;;;;;;6.04;100.00;98159.47;2096106;83;21045;-86
2022/09/30 03:34:26;;;;;;;25.88;18.37;;;;;;;6.16;100.00;98156.03;2113480;83;21071;-86
2022/09/30 03:37:27;;;;;;;24.18;18.62;;;;;;;6.17;100.00;98157.66;2101067;83;21020;-86
2022/09/30 03:40:27;;;;;;;29.72;19.48;;;;;;;6.11;100.00;98146.11;2108690;83;21076;-85
2022/09/30 03:43:28;;;;;;;27.22;19.95;;;;;;;6.14;100.00;98148.41;2079263;84;21105;-86
2022/09/30 03:46:29;;;;;;;32.55;19.57;;;;;;;6.18;100.00;98157.48;2106262;83;21009;-86
2022/09/30 03:49:29;;;;;;;26.15;18.70;;;;;;;6.22;100.00;98152.30;2121670;83;21025;-86
2022/09/30 03:52:30;;;;;;;33.42;25.82;;;;;;;6.29;100.00;98164.13;2110580;83;21022;-86
2022/09/30 03:55:32;;;;;;;24.35;19.37;;;;;;;6.29;100.00;98165.42;2106050;83;21068;-86
2022/09/30 03:58:33;;;;;;;22.35;17.80;;;;;;;6.25;100.00;98170.16;2108151;83;21541;-87
2022/09/30 04:01:34;;;;;;;19.48;15.60;;;;;;;6.18;100.00;98166.58;2067042;85;21540;-86
2022/09/30 04:04:35;;;;;;;27.00;18.95;;;;;;;6.15;100.00;98166.92;2009232;84;21068;-86
2022/09/30 04:07:35;;;;;;;20.92;17.35;;;;;;;6.11;100.00;98166.09;2089305;83;21059;-86
2022/09/30 04:10:36;;;;;;;22.65;16.10;;;;;;;6.13;100.00;98168.88;2165074;81;20991;-85
2022/09/30 04:13:36;;;;;;;22.80;17.65;;;;;;;6.15;100.00;98171.31;2177530;81;21112;-86
2022/09/30 04:16:37;;;;;;;26.73;19.85;;;;;;;6.08;100.00;98167.25;2140042;82;21555;-86
2022/09/30 04:19:39;;;;;;;30.52;22.73;;;;;;;6.03;100.00;98177.80;2146118;81;21141;-85
2022/09/30 04:22:39;;;;;;;25.65;20.32;;;;;;;6.01;100.00;98174.55;2153584;82;21049;-85
2022/09/30 04:25:40;;;;;;;24.27;17.23;;;;;;;6.07;100.00;98176.02;2153767;81;20965;-86
2022/09/30 04:28:41;;;;;;;24.23;19.55;;;;;;;6.14;100.00;98176.19;2148514;82;21097;-85
2022/09/30 04:31:41;;;;;;;23.47;19.65;;;;;;;6.17;100.00;98174.55;2157396;81;20994;-86
2022/09/30 04:34:42;;;;;;;26.45;19.87;;;;;;;6.22;100.00;98174.39;2144856;81;21051;-86
2022/09/30 04:37:43;;;;;;;31.33;21.27;;;;;;;6.23;100.00;98183.81;2148755;81;21439;-86
2022/09/30 04:40:44;;;;;;;31.97;21.68;;;;;;;6.31;100.00;98190.79;2142445;82;21048;-86
2022/09/30 04:43:45;;;;;;;27.37;22.50;;;;;;;6.41;100.00;98203.61;2151230;82;20962;-86
2022/09/30 04:46:46;;;;;;;29.48;22.90;;;;;;;6.51;100.00;98205.05;2156188;81;20985;-87
2022/09/30 04:49:47;;;;;;;24.82;17.25;;;;;;;6.55;100.00;98194.63;2157958;82;20989;-87
2022/09/30 04:52:47;;;;;;;27.17;19.48;;;;;;;6.64;100.00;98197.20;2166869;81;21025;-86
2022/09/30 04:55:48;;;;;;;26.75;18.65;;;;;;;6.70;100.00;98201.75;2146631;81;21051;-86
2022/09/30 04:58:49;;;;;;;25.48;20.35;;;;;;;6.70;100.00;98208.26;2156315;81;21036;-84
2022/09/30 05:01:50;;;;;;;27.87;19.95;;;;;;;6.68;100.00;98203.23;2123894;82;21022;-84
2022/09/30 05:04:51;;;;;;;26.07;22.58;;;;;;;6.65;100.00;98203.54;2152534;81;21551;-87
2022/09/30 05:07:51;;;;;;;28.12;19.98;;;;;;;6.68;100.00;98205.83;2157463;81;21000;-86
2022/09/30 05:10:52;;;;;;;30.00;20.10;;;;;;;6.75;100.00;98208.55;2141519;81;21052;-86
2022/09/30 05:13:53;;;;;;;28.17;18.07;;;;;;;6.80;100.00;98209.69;2157001;81;21091;-86
2022/09/30 05:16:53;;;;;;;27.02;17.67;;;;;;;6.81;100.00;98207.41;2155288;81;21045;-86
2022/09/30 05:19:54;;;;;;;24.05;17.37;;;;;;;6.84;100.00;98205.75;2152614;81;21069;-85
2022/09/30 05:22:55;;;;;;;27.02;18.30;;;;;;;6.88;100.00;98206.74;2156338;81;21016;-85
2022/09/30 05:25:55;;;;;;;19.80;14.45;;;;;;;6.91;100.00;98205.09;2147270;81;21567;-88
2022/09/30 05:28:58;;;;;;;23.00;16.67;;;;;;;6.99;100.00;98207.18;2120917;82;21053;-87
2022/09/30 05:31:58;;;;;;;23.95;17.23;;;;;;;7.10;100.00;98211.20;2142821;82;21119;-85
2022/09/30 05:35:02;;;;;;;26.87;17.98;;;;;;;7.28;100.00;98210.46;2135823;82;21112;-83
2022/09/30 05:38:05;;;;;;;19.23;14.75;;;;;;;7.42;100.00;98207.63;2152245;82;21539;-87
2022/09/30 05:41:06;;;;;;;20.80;16.65;;;;;;;7.54;100.00;98201.53;2167013;82;21049;-89
2022/09/30 05:44:08;;;;;;;18.62;15.00;;;;;;;7.64;100.00;98206.83;2152207;81;21112;-91
2022/09/30 05:47:10;;;;;;;26.27;17.80;;;;;;;7.75;100.00;98205.61;2131203;82;21057;-88
2022/09/30 05:50:11;;;;;;;27.02;17.02;;;;;;;7.85;100.00;98204.08;2151455;82;21599;-87
2022/09/30 05:53:11;;;;;;;22.02;16.52;;;;;;;7.97;100.00;98212.64;2153549;82;21025;-88
2022/09/30 05:56:12;;;;;;;26.12;17.98;;;;;;;8.10;100.00;98211.22;2158857;82;21054;-87
2022/09/30 05:59:13;;;;;;;21.40;16.60;;;;;;;8.19;100.00;98210.98;2157912;82;21087;-89
2022/09/30 06:02:15;;;;;;;29.60;16.87;;;;;;;8.35;100.00;98213.16;2150398;82;21694;-90
2022/09/30 06:05:16;;;;;;;23.00;16.12;;;;;;;8.41;100.00;98211.97;2147908;82;21034;-90
2022/09/30 06:08:17;;;;;;;18.70;13.93;;;;;;;8.50;100.00;98223.95;2166210;82;21545;-87
2022/09/30 06:11:18;;;;;;;19.23;13.20;;;;;;;8.55;100.00;98221.60;2153042;82;21025;-88
2022/09/30 06:14:19;;;;;;;18.12;13.10;;;;;;;8.61;100.00;98219.28;2115978;82;22204;-87
2022/09/30 06:17:19;;;;;;;21.68;15.18;;;;;;;8.66;100.00;98220.34;2081015;84;21093;-88
2022/09/30 06:20:20;;;;;;;15.50;12.33;;;;;;;8.79;100.00;98222.35;2136162;82;21515;-88
2022/09/30 06:23:21;;;;;;;14.18;11.73;;;;;;;8.88;100.00;98236.12;2145652;82;21047;-88
2022/09/30 06:26:22;;;;;;;15.03;10.45;;;;;;;8.93;100.00;98236.38;2161910;82;21020;-88
2022/09/30 06:29:22;;;;;;;12.88;11.18;;;;;;;8.97;100.00;98232.44;2107494;83;21037;-86
2022/09/30 06:32:25;;;;;;;13.98;10.03;;;;;;;9.00;100.00;98236.79;2077663;84;21127;-87
2022/09/30 06:35:27;;;;;;;15.13;9.40;;;;;;;9.02;100.00;98226.97;2078947;84;21192;-86
2022/09/30 06:38:28;;;;;;;14.40;11.03;;;;;;;9.08;100.00;98228.86;2095980;84;21589;-87
2022/09/30 06:41:29;;;;;;;11.63;9.98;;;;;;;9.20;100.00;98234.92;2107608;83;21068;-89
2022/09/30 06:44:29;;;;;;;12.78;10.38;;;;;;;9.30;100.00;98237.56;2097136;84;21020;-87
2022/09/30 06:47:32;;;;;;;11.50;9.50;;;;;;;9.37;100.00;98240.27;2084747;85;21037;-88
2022/09/30 06:50:32;;;;;;;12.37;9.93;;;;;;;9.40;100.00;98242.50;2092721;84;21061;-87
2022/09/30 06:53:34;;;;;;;12.93;9.45;;;;;;;9.52;100.00;98244.16;2075057;85;21056;-85
2022/09/30 06:56:35;;;;;;;10.70;8.73;;;;;;;9.61;100.00;98251.70;2080878;84;21172;-86
2022/09/30 06:59:36;;;;;;;13.13;9.35;;;;;;;9.66;100.00;98251.95;2153300;82;21590;-88
2022/09/30 07:02:38;;;;;;;12.58;9.75;;;;;;;9.72;100.00;98254.33;2091935;85;21155;-89
2022/09/30 07:05:39;;;;;;;13.50;9.08;;;;;;;9.74;100.00;98251.03;2070481;84;21128;-91
2022/09/30 07:08:40;;;;;;;12.47;8.90;;;;;;;9.79;100.00;98254.41;2067261;85;21042;-91
2022/09/30 07:11:41;;;;;;;20.60;10.58;;;;;;;9.86;100.00;98250.03;2096191;83;21528;-92
2022/09/30 07:14:42;;;;;;;14.15;10.50;;;;;;;9.86;100.00;98252.65;2098058;83;21071;-90
2022/09/30 07:17:42;;;;;;;12.15;9.93;;;;;;;9.83;100.00;98254.34;2095364;85;22465;-91
2022/09/30 07:20:43;;;;;;;11.40;8.75;;;;;;;9.86;100.00;98257.88;2155800;82;21075;-91
2022/09/30 07:23:47;;;;;;;12.35;9.83;;;;;;;9.89;100.00;98245.27;2153870;82;21006;-91
2022/09/30 07:26:48;;;;;;;14.93;10.23;;;;;;;9.94;100.00;98245.50;2166894;82;21109;-91
2022/09/30 07:29:49;;;;;;;10.18;9.18;;;;;;;9.98;100.00;98250.68;2143932;81;21048;-90
2022/09/30 07:32:50;;;;;;;13.13;8.70;;;;;;;10.06;100.00;98258.91;2072230;85;21076;-91
2022/09/30 07:35:51;;;;;;;9.65;8.65;;;;;;;10.12;100.00;98259.95;2165736;82;21551;-92
2022/09/30 07:38:51;;;;;;;10.13;8.95;;;;;;;10.17;100.00;98262.83;2151865;82;21596;-90
2022/09/30 07:41:52;;;;;;;11.40;10.20;;;;;;;10.21;100.00;98264.05;2083134;84;21045;-90
2022/09/30 07:44:53;;;;;;;8.58;7.72;;;;;;;10.32;100.00;98271.42;2154050;82;21045;-90
2022/09/30 07:47:54;;;;;;;9.95;8.75;;;;;;;10.38;100.00;98263.33;2083143;85;21528;-92
2022/09/30 07:50:55;;;;;;;9.58;8.48;;;;;;;10.47;100.00;98260.38;2134290;82;21021;-91
2022/09/30 07:53:56;;;;;;;9.60;8.60;;;;;;;10.55;100.00;98262.06;2163151;82;21112;-91
2022/09/30 07:56:56;;;;;;;12.23;9.90;;;;;;;10.60;100.00;98258.86;2146498;82;20965;-91
2022/09/30 07:59:57;;;;;;;9.83;8.53;;;;;;;10.60;100.00;98264.90;2080346;85;21068;-90
2022/09/30 08:02:58;;;;;;;13.93;10.85;;;;;;;10.59;100.00;98266.41;2085226;84;21013;-91
2022/09/30 08:05:59;;;;;;;14.53;11.50;;;;;;;10.60;100.00;98264.09;2084054;84;21060;-91
2022/09/30 08:09:00;;;;;;;16.17;11.70;;;;;;;10.62;100.00;98269.97;2144898;82;21512;-87
2022/09/30 08:12:00;;;;;;;17.35;11.63;;;;;;;10.61;100.00;98270.47;2145451;82;21521;-91
2022/09/30 08:15:01;;;;;;;21.23;17.10;;;;;;;10.62;100.00;98264.73;2139673;82;21040;-91
2022/09/30 08:18:02;;;;;;;20.27;14.47;;;;;;;10.61;100.00;98269.16;2097396;85;21545;-91
2022/09/30 08:21:03;;;;;;;16.60;11.25;;;;;;;10.60;100.00;98266.71;2136518;82;21012;-90
2022/09/30 08:24:03;;;;;;;12.37;11.08;;;;;;;10.60;100.00;98270.64;2073732;85;21080;-91
2022/09/30 08:27:04;;;;;;;14.23;11.63;;;;;;;10.60;100.00;98274.56;2161963;82;21001;-92
2022/09/30 08:30:05;;;;;;;13.18;9.68;;;;;;;10.61;100.00;98275.70;2143638;82;21527;-90
2022/09/30 08:33:06;;;;;;;22.00;12.28;;;;;;;10.64;100.00;98274.52;2074098;85;20990;-94
2022/09/30 08:36:06;;;;;;;15.18;12.37;;;;;;;10.63;100.00;98278.94;2154573;82;20978;-91
2022/09/30 08:39:09;;;;;;;19.05;12.28;;;;;;;10.64;100.00;98277.13;2161997;82;21049;-90
2022/09/30 08:42:09;;;;;;;16.93;13.65;;;;;;;10.67;100.00;98283.28;2155605;81;21009;-89
2022/09/30 08:45:10;;;;;;;20.82;14.80;;;;;;;10.70;100.00;98284.23;2151312;82;21037;-90
2022/09/30 08:48:12;;;;;;;18.73;14.55;;;;;;;10.73;100.00;98269.44;2165069;82;21112;-89
2022/09/30 08:51:14;;;;;;;19.73;15.00;;;;;;;10.72;100.00;98267.83;2084501;85;21112;-89
2022/09/30 08:54:15;;;;;;;18.02;14.15;;;;;;;10.74;100.00;98272.36;2148945;82;21073;-89
2022/09/30 08:57:16;;;;;;;18.12;14.43;;;;;;;10.74;100.00;98269.75;2158452;82;21111;-89
2022/09/30 09:00:16;;;;;;;16.73;14.03;;;;;;;10.74;100.00;98277.59;2102861;83;21045;-91
2022/09/30 09:03:19;;;;;;;17.98;15.00;;;;;;;10.78;100.00;98273.59;2055872;85;21082;-85
2022/09/30 09:06:20;;;;;;;14.53;12.35;;;;;;;10.81;100.00;98273.23;2092529;85;21065;-86
2022/09/30 09:09:21;;;;;;;17.17;14.78;;;;;;;10.85;100.00;98273.64;2095599;85;21092;-84
2022/09/30 09:12:22;;;;;;;17.40;14.47;;;;;;;10.95;100.00;98272.29;2088383;85;20989;-86
2022/09/30 09:15:23;;;;;;;16.82;13.15;;;;;;;10.95;100.00;98272.29;2055551;84;21060;-85
2022/09/30 09:18:24;;;;;;;16.23;13.83;;;;;;;11.04;100.00;98282.92;2063383;84;21053;-86
2022/09/30 09:21:25;;;;;;;13.25;11.90;;;;;;;11.07;100.00;98285.18;2097033;83;21029;-88
2022/09/30 09:24:26;;;;;;;12.75;11.38;;;;;;;11.11;100.00;98277.73;2165767;82;21048;-86
2022/09/30 09:27:26;;;;;;;15.72;12.23;;;;;;;11.22;100.00;98283.73;2166551;82;21549;-87
2022/09/30 09:30:27;;;;;;;14.35;11.43;;;;;;;11.28;100.00;98284.78;2158360;81;21074;-86
2022/09/30 09:33:28;;;;;;;13.13;10.98;;;;;;;11.33;100.00;98287.61;2158534;82;21017;-87
2022/09/30 09:36:29;;;;;;;13.90;11.15;;;;;;;11.33;100.00;98290.23;2159840;82;21076;-88
2022/09/30 09:39:30;;;;;;;10.15;9.13;;;;;;;11.32;100.00;98295.17;2138677;82;21087;-88
2022/09/30 09:42:30;;;;;;;11.43;9.50;;;;;;;11.29;100.00;98295.06;2055682;85;21021;-90
2022/09/30 09:45:31;;;;;;;10.18;8.83;;;;;;;11.28;100.00;98292.14;2093782;84;21520;-88
2022/09/30 09:48:34;;;;;;;12.90;9.73;;;;;;;11.37;100.00;98296.72;2094816;85;21021;-88
2022/09/30 09:51:34;;;;;;;11.03;9.63;;;;;;;11.43;100.00;98295.11;2166294;82;21078;-86
2022/09/30 09:54:35;;;;;;;10.10;9.20;;;;;;;11.47;100.00;98295.05;2135111;82;21080;-87
2022/09/30 09:57:36;;;;;;;10.75;9.45;;;;;;;11.50;100.00;98297.27;2145554;82;21001;-89
2022/09/30 10:03:47;;;;;;;11.80;9.53;;;;;;;11.58;100.00;98298.41;2166417;82;21002;-88
2022/09/30 10:06:47;;;;;;;12.80;9.65;;;;;;;11.64;100.00;98299.77;2153998;82;21596;-87
2022/09/30 10:09:48;;;;;;;10.88;9.60;;;;;;;11.74;100.00;98302.02;2163763;82;21057;-87
2022/09/30 10:12:49;;;;;;;9.58;8.65;;;;;;;11.75;100.00;98297.07;2165735;82;21041;-86
2022/09/30 10:15:50;;;;;;;9.73;8.68;;;;;;;11.78;100.00;98291.92;2161185;82;21065;-86
2022/09/30 10:18:51;;;;;;;9.65;8.65;;;;;;;11.74;100.00;98292.84;2152261;82;21013;-88
2022/09/30 10:21:51;;;;;;;9.53;7.97;;;;;;;11.67;100.00;98292.00;2153021;82;21094;-87
2022/09/30 10:24:52;;;;;;;12.82;9.15;;;;;;;11.66;100.00;98289.88;2159593;82;21096;-86
2022/09/30 10:27:53;;;;;;;11.00;9.85;;;;;;;11.65;100.00;98294.02;2148024;81;21507;-86
2022/09/30 10:30:53;;;;;;;15.60;12.55;;;;;;;11.69;100.00;98299.16;2164050;82;21076;-88
2022/09/30 10:33:54;;;;;;;16.65;12.35;;;;;;;11.67;100.00;98294.62;2153947;82;20989;-88
2022/09/30 10:36:55;;;;;;;14.03;10.08;;;;;;;11.66;100.00;98299.05;2166983;81;21587;-87
2022/09/30 10:39:56;;;;;;;12.40;11.00;;;;;;;11.63;100.00;98297.34;2167952;82;21509;-88
2022/09/30 10:42:57;;;;;;;13.50;11.85;;;;;;;11.66;100.00;98300.87;2148870;82;21597;-88
2022/09/30 10:46:02;;;;;;;13.22;10.58;;;;;;;11.67;100.00;98298.05;2135485;82;21140;-89
2022/09/30 10:49:00;;;;;;;12.98;11.53;;;;;;;11.71;100.00;98308.17;2159798;82;21604;-85
2022/09/30 10:52:01;;;;;;;14.23;10.58;;;;;;;11.66;100.00;98308.73;2156084;82;21088;-86
2022/09/30 10:55:02;;;;;;;12.05;10.45;;;;;;;11.58;100.00;98311.52;2149893;82;21037;-85
2022/09/30 10:58:03;;;;;;;13.03;10.03;;;;;;;11.49;100.00;98307.45;2165770;82;21042;-87
2022/09/30 11:01:04;;;;;;;14.55;11.75;;;;;;;11.46;100.00;98315.22;2149599;81;21109;-87
2022/09/30 11:04:04;;;;;;;16.80;13.28;;;;;;;11.37;100.00;98314.56;2165627;82;21120;-87
2022/09/30 11:07:05;;;;;;;14.13;12.45;;;;;;;11.30;100.00;98315.53;2150553;82;21654;-85
2022/09/30 11:10:06;;;;;;;14.60;11.12;;;;;;;11.32;100.00;98316.14;2148045;81;21525;-83
2022/09/30 11:13:07;;;;;;;10.48;8.70;;;;;;;11.30;100.00;98316.34;2136139;82;21024;-87
2022/09/30 11:16:11;;;;;;;10.72;9.63;;;;;;;11.27;100.00;98322.48;2143661;81;21574;-88
2022/09/30 11:19:12;;;;;;;11.80;8.68;;;;;;;11.22;100.00;98321.73;2142755;82;21010;-83
2022/09/30 11:22:12;;;;;;;16.42;10.82;;;;;;;11.19;100.00;98324.75;2155997;82;22156;-83
2022/09/30 11:25:13;;;;;;;11.18;10.03;;;;;;;11.17;100.00;98326.76;2138859;82;21032;-86
2022/09/30 11:28:14;;;;;;;18.65;13.48;;;;;;;11.17;100.00;98323.33;2167314;82;20998;-88
2022/09/30 11:31:15;;;;;;;18.75;14.93;;;;;;;11.15;100.00;98328.73;2153548;82;21592;-86
2022/09/30 11:34:15;;;;;;;19.15;16.73;;;;;;;11.17;100.00;98323.33;2166501;82;21065;-85
2022/09/30 11:37:16;;;;;;;16.20;14.35;;;;;;;11.13;100.00;98324.19;2158651;82;21036;-90
2022/09/30 11:40:17;;;;;;;15.75;12.07;;;;;;;11.14;100.00;98331.05;2157042;81;21081;-90
2022/09/30 11:43:18;;;;;;;14.58;12.78;;;;;;;11.14;100.00;98328.43;2155507;82;21058;-86
2022/09/30 11:46:19;;;;;;;13.62;10.85;;;;;;;11.13;100.00;98330.74;2095803;85;21115;-89
2022/09/30 11:49:19;;;;;;;13.90;12.37;;;;;;;11.13;100.00;98333.87;2159039;82;20978;-87
2022/09/30 11:52:20;;;;;;;14.28;12.30;;;;;;;11.09;100.00;98319.05;2136973;82;21068;-85
2022/09/30 11:55:21;;;;;;;12.13;10.45;;;;;;;11.12;100.00;98333.06;2097658;84;21048;-87
2022/09/30 11:58:22;;;;;;;11.12;9.63;;;;;;;11.13;100.00;98333.36;2100335;84;21052;-84
2022/09/30 12:01:22;;;;;;;17.23;13.05;;;;;;;11.16;100.00;98336.94;2153529;82;21048;-84
2022/09/30 12:04:23;;;;;;;24.37;15.48;;;;;;;11.14;100.00;98342.84;2048696;85;21049;-85
2022/09/30 12:07:24;;;;;;;15.32;11.73;;;;;;;11.16;100.00;98342.17;2103171;83;21013;-86
2022/09/30 12:10:25;;;;;;;12.63;11.33;;;;;;;11.14;100.00;98349.39;2063340;85;21060;-86
2022/09/30 12:13:25;;;;;;;13.45;11.15;;;;;;;11.11;100.00;98354.52;2068267;85;21493;-85
2022/09/30 12:16:26;;;;;;;13.00;10.65;;;;;;;11.08;100.00;98348.87;2161758;82;20998;-86
2022/09/30 12:19:27;;;;;;;10.50;9.38;;;;;;;11.06;100.00;98352.16;2162600;82;21544;-84
2022/09/30 12:22:28;;;;;;;9.85;8.53;;;;;;;11.03;100.00;98352.05;2150177;81;21071;-86
2022/09/30 12:25:30;;;;;;;10.80;8.78;;;;;;;11.00;100.00;98356.36;2086081;85;21044;-85
2022/09/30 12:31:53;;;;;;;9.33;8.30;;;;;;;10.87;100.00;98339.23;2134421;82;21123;-81
2022/09/30 12:34:53;;;;;;;10.28;8.80;;;;;;;10.92;100.00;98347.84;2093804;85;21128;-83
2022/09/30 12:37:56;;;;;;;10.28;9.13;;;;;;;10.91;100.00;98349.65;2043853;85;21032;-85
2022/09/30 12:40:57;;;;;;;9.93;7.97;;;;;;;10.93;100.00;98357.31;2077484;85;21608;-86
2022/09/30 12:43:58;;;;;;;11.22;8.75;;;;;;;10.88;100.00;98351.82;2077640;85;21096;-86
2022/09/30 12:46:58;;;;;;;9.48;8.55;;;;;;;10.91;100.00;98352.77;2162120;82;21061;-87
2022/09/30 12:49:59;;;;;;;10.23;9.13;;;;;;;10.91;100.00;98352.77;2161471;82;21065;-84
2022/09/30 12:53:00;;;;;;;13.78;9.28;;;;;;;10.90;100.00;98355.89;2143829;82;21044;-86
2022/09/30 12:56:01;;;;;;;15.13;10.30;;;;;;;10.90;100.00;98353.27;2069176;85;21064;-86
2022/09/30 12:59:02;;;;;;;9.10;8.18;;;;;;;10.93;100.00;98358.12;2110270;84;21064;-85
2022/09/30 13:02:03;;;;;;;9.53;8.60;;;;;;;10.97;100.00;98359.84;2163298;82;21068;-84
2022/09/30 13:05:04;;;;;;;9.00;7.53;;;;;;;10.95;100.00;98360.55;2088768;85;21045;-84
2022/09/30 13:08:05;;;;;;;11.05;8.70;;;;;;;10.92;100.00;98370.91;2086666;85;21096;-85
2022/09/30 13:11:07;;;;;;;13.80;11.38;;;;;;;10.87;100.00;98364.11;2162352;81;21152;-85
2022/09/30 13:14:08;;;;;;;13.68;12.07;;;;;;;10.87;100.00;98364.11;2142790;82;21004;-83
2022/09/30 13:17:12;;;;;;;16.55;12.25;;;;;;;10.88;100.00;98363.61;2090623;85;21009;-89
2022/09/30 13:20:13;;;;;;;10.58;9.50;;;;;;;10.93;100.00;98371.22;2100243;85;21074;-85
2022/09/30 13:23:13;;;;;;;10.20;8.78;;;;;;;10.97;100.00;98370.33;2165333;82;21849;-85
2022/09/30 13:26:14;;;;;;;11.15;9.28;;;;;;;10.98;100.00;98370.66;2166383;82;20962;-87
2022/09/30 13:29:15;;;;;;;9.90;9.00;;;;;;;10.99;100.00;98367.84;2145175;82;21600;-84
2022/09/30 13:32:16;;;;;;;12.03;10.23;;;;;;;11.03;100.00;98373.51;2153649;82;21098;-86
2022/09/30 13:35:16;;;;;;;11.25;9.18;;;;;;;11.04;100.00;98375.93;2165714;82;21115;-88
2022/09/30 13:38:17;;;;;;;11.45;9.05;;;;;;;11.06;100.00;98376.58;2143340;82;21072;-82
2022/09/30 13:41:18;;;;;;;10.30;9.25;;;;;;;11.09;100.00;98381.42;2079778;85;21060;-86
2022/09/30 13:44:18;;;;;;;11.50;10.30;;;;;;;11.10;100.00;98376.48;2073845;84;21013;-83
2022/09/30 13:47:19;;;;;;;19.85;16.02;;;;;;;11.13;100.00;98375.29;2163814;81;21029;-82
2022/09/30 13:50:20;;;;;;;14.55;11.93;;;;;;;11.17;100.00;98381.78;2168194;82;21099;-82
2022/09/30 13:53:21;;;;;;;12.70;10.45;;;;;;;11.16;100.00;98386.72;2145881;82;21080;-83
2022/09/30 13:56:23;;;;;;;11.53;10.30;;;;;;;11.11;100.00;98391.20;2162090;82;21010;-85